createdAt,value
2018-02-08T00:01:11.959Z,30.13
2018-02-08T00:03:39.419Z,28.40
2018-02-08T00:06:06.859Z,29.27
2018-02-08T00:08:34.307Z,32.43
2018-02-08T00:11:01.747Z,31.47
2018-02-08T00:13:29.196Z,30.83
2018-02-08T00:15:56.636Z,32.17
2018-02-08T00:18:24.083Z,32.00
2018-02-08T00:20:51.532Z,27.13
2018-02-08T00:23:19.743Z,30.13
2018-02-08T00:25:47.179Z,29.70
2018-02-08T00:28:14.631Z,32.00
2018-02-08T00:30:42.068Z,30.67
2018-02-08T00:33:10.278Z,31.13
2018-02-08T00:35:37.720Z,30.70
2018-02-08T00:38:05.159Z,29.70
2018-02-08T00:40:32.599Z,29.93
2018-02-08T00:43:00.812Z,28.97
2018-02-08T00:45:29.015Z,30.90
2018-02-08T00:47:56.462Z,28.80
2018-02-08T00:50:23.891Z,30.67
2018-02-08T00:52:51.343Z,27.50
2018-02-08T00:55:19.543Z,31.47
2018-02-08T00:57:48.695Z,29.83
2018-02-08T01:00:16.137Z,31.73
2018-02-08T01:02:44.348Z,28.63
2018-02-08T01:05:12.551Z,30.60
2018-02-08T01:07:40.764Z,27.80
2018-02-08T01:10:08.208Z,27.17
2018-02-08T01:12:35.643Z,31.27
2018-02-08T01:15:03.084Z,29.37
2018-02-08T01:17:31.287Z,29.30
2018-02-08T01:19:59.499Z,28.87
2018-02-08T01:22:26.940Z,28.27
2018-02-08T01:24:54.384Z,28.77
2018-02-08T01:27:21.823Z,31.00
2018-02-08T01:29:49.272Z,27.50
2018-02-08T01:32:16.712Z,29.90
2018-02-08T01:34:44.164Z,26.87
2018-02-08T01:37:12.371Z,27.83
2018-02-08T01:39:39.815Z,29.83
2018-02-08T01:42:07.250Z,28.73
2018-02-08T01:44:34.700Z,26.93
2018-02-08T01:47:02.904Z,29.90
2018-02-08T01:49:46.955Z,30.70
2018-02-08T01:52:14.391Z,30.30
2018-02-08T01:54:41.840Z,30.70
2018-02-08T01:57:09.282Z,29.10
2018-02-08T01:59:36.783Z,30.97
2018-02-08T02:02:04.172Z,29.57
2018-02-08T02:04:32.397Z,31.70
2018-02-08T02:06:59.831Z,29.17
2018-02-08T02:09:27.303Z,29.60
2018-02-08T02:11:54.712Z,31.00
2018-02-08T02:14:22.924Z,30.20
2018-02-08T02:16:50.367Z,35.20
2018-02-08T02:19:17.811Z,33.70
2018-02-08T02:21:45.251Z,38.03
2018-02-08T02:24:13.463Z,28.40
2018-02-08T02:26:40.899Z,29.80
2018-02-08T02:29:08.344Z,29.50
2018-02-08T02:31:35.780Z,30.43
2018-02-08T02:34:04.076Z,30.40
2018-02-08T02:36:31.512Z,30.20
2018-02-08T02:38:58.962Z,28.63
2018-02-08T02:41:27.167Z,29.97
2018-02-08T02:43:54.612Z,31.57
2018-02-08T02:46:22.043Z,29.07
2018-02-08T02:48:49.496Z,28.93
2018-02-08T02:51:17.696Z,27.27
2018-02-08T02:53:45.918Z,29.13
2018-02-08T02:56:13.347Z,28.40
2018-02-08T02:58:40.832Z,30.67
2018-02-08T03:01:08.223Z,29.40
2018-02-08T03:03:36.438Z,29.90
2018-02-08T03:06:03.875Z,26.63
2018-02-08T03:08:31.319Z,31.33
2018-02-08T03:10:58.763Z,29.23
2018-02-08T03:13:26.955Z,29.33
2018-02-08T03:15:55.162Z,28.90
2018-02-08T03:18:23.362Z,29.70
2018-02-08T03:20:51.569Z,29.77
2018-02-08T03:23:19.770Z,28.03
2018-02-08T03:25:47.975Z,29.47
2018-02-08T03:28:15.410Z,30.30
2018-02-08T03:30:43.416Z,29.97
2018-02-08T03:33:10.842Z,29.83
2018-02-08T03:35:38.282Z,24.10
2018-02-08T03:38:05.719Z,30.10
2018-02-08T03:40:33.162Z,28.80
2018-02-08T03:43:01.535Z,39.90
2018-02-08T03:45:28.975Z,35.00
2018-02-08T03:47:56.406Z,29.77
2018-02-08T03:50:24.611Z,28.03
2018-02-08T03:52:52.814Z,30.50
2018-02-08T03:55:21.022Z,29.97
2018-02-08T03:57:49.228Z,29.10
2018-02-08T04:00:16.666Z,31.73
2018-02-08T04:02:44.102Z,29.77
2018-02-08T04:05:11.546Z,29.93
2018-02-08T04:07:39.751Z,31.10
2018-02-08T04:10:07.958Z,32.20
2018-02-08T04:12:36.162Z,29.00
2018-02-08T04:15:03.639Z,28.10
2018-02-08T04:17:31.078Z,30.27
2018-02-08T04:19:58.523Z,29.60
2018-02-08T04:22:25.957Z,30.50
2018-02-08T04:24:53.418Z,32.30
2018-02-08T04:27:20.857Z,28.63
2018-02-08T04:29:48.301Z,27.73
2018-02-08T04:32:15.751Z,41.40
2018-02-08T04:34:43.183Z,42.08
2018-02-08T04:37:10.623Z,36.20
2018-02-08T04:39:49.992Z,41.00
2018-02-08T04:42:29.451Z,43.92
2018-02-08T04:45:08.835Z,43.70
2018-02-08T04:47:57.635Z,40.12
2018-02-08T04:50:25.066Z,43.03
2018-02-08T04:52:52.506Z,42.70
2018-02-08T04:55:19.938Z,32.77
2018-02-08T04:57:47.386Z,29.40
2018-02-08T05:00:14.822Z,29.50
2018-02-08T05:02:42.254Z,29.40
2018-02-08T05:05:09.699Z,42.30
2018-02-08T05:07:37.146Z,39.38
2018-02-08T05:10:04.639Z,43.30
2018-02-08T05:12:32.079Z,41.42
2018-02-08T05:14:59.519Z,43.53
2018-02-08T05:17:27.727Z,38.20
2018-02-08T05:19:55.168Z,43.15
2018-02-08T05:22:22.600Z,43.30
2018-02-08T05:24:50.054Z,43.40
2018-02-08T05:27:18.250Z,39.95
2018-02-08T05:29:46.455Z,44.90
2018-02-08T05:32:14.655Z,42.90
2018-02-08T05:34:42.862Z,41.30
2018-02-08T05:37:10.303Z,40.40
2018-02-08T05:39:37.755Z,41.17
2018-02-08T05:42:05.176Z,41.57
2018-02-08T05:44:32.634Z,40.45
2018-02-08T05:47:00.067Z,40.17
2018-02-08T05:49:27.511Z,41.95
2018-02-08T05:51:54.955Z,40.75
2018-02-08T05:54:22.390Z,40.00
2018-02-08T05:56:50.603Z,39.95
2018-02-08T05:59:18.035Z,38.38
2018-02-08T06:01:45.478Z,46.08
2018-02-08T06:04:12.919Z,43.70
2018-02-08T06:06:40.358Z,45.92
2018-02-08T06:09:07.799Z,43.90
2018-02-08T06:11:35.244Z,44.25
2018-02-08T06:14:02.682Z,41.65
2018-02-08T06:16:30.143Z,41.75
2018-02-08T06:18:58.352Z,41.75
2018-02-08T06:21:25.810Z,41.75
2018-02-08T06:23:54.012Z,43.15
2018-02-08T06:26:22.224Z,42.78
2018-02-08T06:28:49.654Z,40.80
2018-02-08T06:31:17.104Z,42.97
2018-02-08T06:33:44.556Z,42.10
2018-02-08T06:36:12.754Z,40.70
2018-02-08T06:38:40.962Z,40.10
2018-02-08T06:41:08.394Z,42.90
2018-02-08T06:43:35.838Z,42.20
2018-02-08T06:46:03.293Z,41.58
2018-02-08T06:48:30.722Z,42.65
2018-02-08T06:50:58.167Z,42.83
2018-02-08T06:53:25.602Z,42.45
2018-02-08T06:55:53.035Z,41.88
2018-02-08T06:58:20.474Z,41.25
2018-02-08T07:00:47.914Z,42.13
2018-02-08T07:03:15.360Z,42.45
2018-02-08T07:05:43.568Z,41.30
2018-02-08T07:08:11.010Z,43.83
2018-02-08T07:10:38.442Z,43.13
2018-02-08T07:13:05.894Z,43.30
2018-02-08T07:15:34.095Z,41.90
2018-02-08T07:18:02.319Z,41.35
2018-02-08T07:20:29.758Z,41.05
2018-02-08T07:22:57.200Z,41.08
2018-02-08T07:25:24.633Z,40.10
2018-02-08T07:27:52.074Z,40.83
2018-02-08T07:30:19.520Z,41.92
2018-02-08T07:32:46.951Z,39.88
2018-02-08T07:35:16.130Z,40.60
2018-02-08T07:37:43.595Z,42.15
2018-02-08T07:40:11.035Z,39.88
2018-02-08T07:42:38.466Z,43.33
2018-02-08T07:45:06.319Z,44.70
2018-02-08T07:47:34.531Z,44.38
2018-02-08T07:50:02.732Z,43.30
2018-02-08T07:52:30.946Z,41.55
2018-02-08T07:54:58.383Z,41.97
2018-02-08T07:57:25.840Z,41.50
2018-02-08T07:59:53.283Z,41.03
2018-02-08T08:02:21.478Z,39.10
2018-02-08T08:04:49.714Z,42.20
2018-02-08T08:07:17.155Z,40.83
2018-02-08T08:09:45.366Z,40.25
2018-02-08T08:12:13.575Z,41.67
2018-02-08T08:14:41.786Z,36.00
2018-02-08T08:17:09.984Z,32.63
2018-02-08T08:19:38.191Z,30.77
2018-02-08T08:22:05.618Z,32.00
2018-02-08T08:24:33.059Z,30.83
2018-02-08T08:27:00.495Z,29.17
2018-02-08T08:29:27.931Z,29.90
2018-02-08T08:31:55.363Z,29.53
2018-02-08T08:34:22.803Z,30.47
2018-02-08T08:36:50.230Z,30.20
2018-02-08T08:39:17.672Z,29.90
2018-02-08T08:41:45.102Z,28.17
2018-02-08T08:44:13.311Z,29.47
2018-02-08T08:46:41.514Z,30.90
2018-02-08T08:49:09.712Z,30.30
2018-02-08T08:51:37.147Z,30.37
2018-02-08T08:54:04.586Z,29.37
2018-02-08T08:56:32.023Z,29.80
2018-02-08T08:58:59.467Z,32.07
2018-02-08T09:01:26.898Z,29.60
2018-02-08T09:03:54.330Z,29.30
2018-02-08T09:06:21.776Z,33.17
2018-02-08T09:08:49.207Z,31.60
2018-02-08T09:11:16.641Z,29.90
2018-02-08T09:13:44.102Z,29.00
2018-02-08T09:16:11.543Z,34.13
2018-02-08T09:18:38.973Z,32.67
2018-02-08T09:21:06.406Z,29.70
2018-02-08T09:23:33.844Z,29.50
2018-02-08T09:26:01.287Z,39.13
2018-02-08T09:28:28.718Z,39.50
2018-02-08T09:30:56.923Z,39.28
2018-02-08T09:33:25.120Z,41.05
2018-02-08T09:35:53.334Z,41.78
2018-02-08T09:38:21.542Z,39.42
2018-02-08T09:40:49.759Z,42.08
2018-02-08T09:43:17.198Z,42.90
2018-02-08T09:45:44.646Z,41.00
2018-02-08T09:48:12.074Z,43.58
2018-02-08T09:50:39.518Z,45.17
2018-02-08T09:53:06.971Z,41.97
2018-02-08T09:55:35.171Z,38.80
2018-02-08T09:58:03.371Z,34.77
2018-02-08T10:00:31.621Z,33.20
2018-02-08T10:02:59.774Z,30.57
2018-02-08T10:05:27.983Z,32.33
2018-02-08T10:07:56.178Z,31.20
2018-02-08T10:10:24.387Z,30.30
2018-02-08T10:12:52.591Z,31.27
2018-02-08T10:15:20.804Z,30.70
2018-02-08T10:17:49.008Z,32.80
2018-02-08T10:20:17.219Z,33.57
2018-02-08T10:22:44.654Z,30.77
2018-02-08T10:25:12.090Z,32.43
2018-02-08T10:27:39.559Z,36.43
2018-02-08T10:30:07.758Z,32.00
2018-02-08T10:32:35.194Z,30.87
2018-02-08T10:35:02.639Z,32.93
2018-02-08T10:37:30.067Z,31.00
2018-02-08T10:39:57.503Z,29.80
2018-02-08T10:42:24.982Z,32.47
2018-02-08T10:44:52.379Z,30.87
2018-02-08T10:47:19.827Z,35.60
2018-02-08T10:49:48.032Z,33.47
2018-02-08T10:52:15.480Z,34.67
2018-02-08T10:54:42.914Z,34.70
2018-02-08T10:57:10.342Z,32.07
2018-02-08T10:59:37.774Z,36.10
2018-02-08T11:02:05.218Z,34.20
2018-02-08T11:04:32.654Z,32.90
2018-02-08T11:07:00.091Z,32.60
2018-02-08T11:09:28.290Z,34.00
2018-02-08T11:11:56.503Z,31.47
2018-02-08T11:14:24.746Z,33.87
2018-02-08T11:16:52.194Z,34.20
2018-02-08T11:19:19.626Z,31.77
2018-02-08T11:21:47.066Z,32.47
2018-02-08T11:24:14.502Z,34.50
2018-02-08T11:26:41.999Z,35.50
2018-02-08T11:29:09.411Z,37.53
2018-02-08T11:31:37.618Z,34.67
2018-02-08T11:34:05.823Z,35.67
2018-02-08T11:36:33.275Z,36.30
2018-02-08T11:39:00.706Z,35.63
2018-02-08T11:41:28.139Z,35.10
2018-02-08T11:43:55.579Z,34.13
2018-02-08T11:46:23.011Z,38.73
2018-02-08T11:48:50.451Z,37.77
2018-02-08T11:51:17.882Z,36.00
2018-02-08T11:53:45.322Z,35.40
2018-02-08T11:56:12.766Z,35.50
2018-02-08T11:58:40.202Z,34.30
2018-02-08T12:01:07.635Z,35.20
2018-02-08T12:03:35.074Z,36.00
2018-02-08T12:06:02.510Z,34.87
2018-02-08T12:08:29.948Z,33.80
2018-02-08T12:10:57.377Z,39.17
2018-02-08T12:13:24.830Z,35.20
2018-02-08T12:15:53.027Z,34.47
2018-02-08T12:18:21.227Z,36.73
2018-02-08T12:20:49.428Z,36.10
2018-02-08T12:23:17.631Z,32.80
2018-02-08T12:25:45.062Z,34.30
2018-02-08T12:28:12.502Z,34.00
2018-02-08T12:30:39.935Z,34.03
2018-02-08T12:33:07.383Z,31.87
2018-02-08T12:35:34.815Z,42.30
2018-02-08T12:38:03.027Z,38.17
2018-02-08T12:40:31.222Z,35.10
2018-02-08T12:42:59.426Z,33.33
2018-02-08T12:45:27.640Z,35.67
2018-02-08T12:47:55.062Z,31.57
2018-02-08T12:50:22.503Z,34.50
2018-02-08T12:52:49.935Z,35.27
2018-02-08T12:55:17.375Z,36.90
2018-02-08T12:57:44.810Z,34.50
2018-02-08T13:00:13.626Z,34.47
2018-02-08T13:02:41.819Z,33.13
2018-02-08T13:05:10.029Z,35.07
2018-02-08T13:07:38.226Z,36.73
2018-02-08T13:10:06.431Z,34.30
2018-02-08T13:12:34.631Z,35.90
2018-02-08T13:15:02.842Z,32.53
2018-02-08T13:17:30.276Z,36.23
2018-02-08T13:19:57.718Z,34.00
2018-02-08T13:22:25.163Z,33.37
2018-02-08T13:24:53.375Z,34.97
2018-02-08T13:27:21.570Z,36.17
2018-02-08T13:29:49.777Z,33.87
2018-02-08T13:32:17.971Z,32.27
2018-02-08T13:34:45.414Z,29.50
2018-02-08T13:37:12.850Z,29.30
2018-02-08T13:39:43.913Z,30.17
2018-02-08T13:42:12.585Z,27.63
2018-02-08T13:44:40.028Z,25.27
2018-02-08T13:50:18.727Z,24.87
2018-02-08T13:52:55.554Z,25.83
2018-02-08T13:55:28.757Z,25.03
2018-02-08T13:57:59.419Z,21.33
2018-02-08T14:00:33.358Z,23.83
2018-02-08T14:03:00.801Z,23.77
2018-02-08T14:05:28.235Z,22.27
2018-02-08T14:07:55.670Z,23.90
2018-02-08T14:10:23.111Z,22.13
2018-02-08T14:12:50.546Z,21.50
2018-02-08T14:15:17.982Z,22.50
2018-02-08T14:17:45.415Z,22.10
2018-02-08T14:20:14.287Z,21.00
2018-02-08T14:22:41.727Z,23.10
2018-02-08T14:25:09.935Z,22.40
2018-02-08T14:27:38.131Z,22.60
2018-02-08T14:30:06.339Z,22.60
2018-02-08T14:32:33.766Z,24.17
2018-02-08T14:35:01.212Z,22.07
2018-02-08T14:37:28.639Z,19.67
2018-02-08T14:39:56.093Z,19.90
2018-02-08T14:42:23.523Z,20.57
2018-02-08T14:44:50.966Z,21.80
2018-02-08T14:47:18.403Z,18.07
2018-02-08T14:49:45.839Z,19.37
2018-02-08T14:52:13.279Z,20.13
2018-02-08T14:54:40.710Z,23.27
2018-02-08T14:57:08.159Z,20.70
2018-02-08T14:59:35.591Z,20.87
2018-02-08T15:02:03.039Z,23.00
2018-02-08T15:04:30.470Z,19.97
2018-02-08T15:06:57.910Z,19.40
2018-02-08T15:09:25.347Z,22.50
2018-02-08T15:11:53.555Z,21.30
2018-02-08T15:14:21.754Z,20.50
2018-02-08T15:16:49.996Z,24.00
2018-02-08T15:19:17.427Z,23.27
2018-02-08T15:21:45.631Z,20.90
2018-02-08T15:24:13.064Z,23.10
2018-02-08T15:26:40.507Z,23.00
2018-02-08T15:29:07.947Z,25.47
2018-02-08T15:31:35.379Z,22.07
2018-02-08T15:34:02.816Z,23.20
2018-02-08T15:36:30.254Z,22.27
2018-02-08T15:38:57.689Z,23.60
2018-02-08T15:41:25.144Z,22.63
2018-02-08T15:43:52.575Z,22.13
2018-02-08T15:46:20.018Z,23.97
2018-02-08T15:48:47.447Z,23.80
2018-02-08T15:51:14.896Z,24.13
2018-02-08T15:53:42.335Z,24.17
2018-02-08T15:56:10.531Z,24.10
2018-02-08T15:58:37.975Z,23.03
2018-02-08T16:01:05.406Z,22.30
2018-02-08T16:03:32.847Z,23.07
2018-02-08T16:06:00.278Z,23.50
2018-02-08T16:08:27.723Z,24.23
2018-02-08T16:10:55.157Z,26.13
2018-02-08T16:13:22.605Z,25.87
2018-02-08T16:15:50.802Z,25.13
2018-02-08T16:18:19.015Z,27.90
2018-02-08T16:20:46.452Z,22.93
2018-02-08T16:23:14.251Z,27.37
2018-02-08T16:25:41.687Z,28.20
2018-02-08T16:28:09.119Z,26.93
2018-02-08T16:30:36.554Z,29.17
2018-02-08T16:33:03.991Z,28.47
2018-02-08T16:35:31.428Z,28.57
2018-02-08T16:37:58.876Z,27.13
2018-02-08T16:40:27.087Z,27.53
2018-02-08T16:42:55.296Z,25.17
2018-02-08T16:45:23.647Z,26.60
2018-02-08T16:47:51.082Z,29.70
2018-02-08T16:50:19.282Z,25.00
2018-02-08T16:52:47.509Z,24.67
2018-02-08T16:55:14.939Z,25.73
2018-02-08T16:57:42.392Z,24.20
2018-02-08T17:00:09.822Z,24.87
2018-02-08T17:02:38.032Z,24.53
2018-02-08T17:05:06.227Z,27.10
2018-02-08T17:07:34.431Z,26.83
2018-02-08T17:10:02.635Z,26.30
2018-02-08T17:12:30.070Z,25.60
2018-02-08T17:14:57.503Z,26.73
2018-02-08T17:17:24.957Z,25.00
2018-02-08T17:19:53.163Z,26.97
2018-02-08T17:22:21.375Z,25.33
2018-02-08T17:24:48.811Z,26.50
2018-02-08T17:27:16.258Z,27.47
2018-02-08T17:29:43.690Z,26.90
2018-02-08T17:32:11.899Z,27.40
2018-02-08T17:34:40.099Z,27.93
2018-02-08T17:37:08.306Z,28.57
2018-02-08T17:39:35.738Z,27.57
2018-02-08T17:42:03.171Z,27.83
2018-02-08T17:44:30.607Z,26.80
2018-02-08T17:46:58.048Z,27.53
2018-02-08T17:49:25.495Z,25.97
2018-02-08T17:51:53.695Z,28.60
2018-02-08T17:54:21.899Z,27.97
2018-02-08T17:56:50.107Z,28.00
2018-02-08T17:59:17.555Z,29.00
2018-02-08T18:01:44.990Z,28.73
2018-02-08T18:04:12.430Z,29.53
2018-02-08T18:06:40.630Z,30.07
2018-02-08T18:09:08.843Z,28.90
2018-02-08T18:11:37.039Z,29.83
2018-02-08T18:14:04.479Z,26.80
2018-02-08T18:16:31.918Z,30.60
2018-02-08T18:18:59.365Z,25.13
2018-02-08T18:21:26.806Z,27.50
2018-02-08T18:23:54.247Z,27.70
2018-02-08T18:26:21.679Z,28.50
2018-02-08T18:28:49.123Z,27.03
2018-02-08T18:31:16.815Z,26.00
2018-02-08T18:33:44.255Z,26.07
2018-02-08T18:36:12.463Z,25.90
2018-02-08T18:38:40.675Z,25.73
2018-02-08T18:41:08.111Z,25.90
2018-02-08T18:43:35.551Z,24.27
2018-02-08T18:46:02.990Z,27.57
2018-02-08T18:48:30.431Z,26.33
2018-02-08T18:50:57.872Z,24.77
2018-02-08T18:53:26.136Z,23.23
2018-02-08T18:55:53.534Z,25.30
2018-02-08T18:58:21.727Z,26.83
2018-02-08T19:00:49.939Z,26.47
2018-02-08T19:03:18.140Z,23.90
2018-02-08T19:05:46.347Z,23.20
2018-02-08T19:08:13.787Z,24.70
2018-02-08T19:10:41.227Z,23.20
2018-02-08T19:13:08.663Z,25.83
2018-02-08T19:15:36.103Z,26.90
2018-02-08T19:18:03.544Z,27.53
2018-02-08T19:20:31.759Z,24.27
2018-02-08T19:22:59.187Z,25.77
2018-02-08T19:25:27.394Z,26.10
2018-02-08T19:27:54.827Z,25.90
2018-02-08T19:30:22.276Z,25.23
2018-02-08T19:32:49.706Z,23.50
2018-02-08T19:35:17.148Z,24.77
2018-02-08T19:37:44.582Z,27.13
2018-02-08T19:40:12.025Z,24.23
2018-02-08T19:42:39.468Z,26.53
2018-02-08T19:45:07.679Z,26.83
2018-02-08T19:47:35.106Z,26.23
2018-02-08T19:50:02.543Z,25.87
2018-02-08T19:52:29.979Z,24.17
2018-02-08T19:54:57.416Z,26.47
2018-02-08T19:57:24.976Z,25.37
2018-02-08T19:59:53.156Z,23.50
2018-02-08T20:02:20.595Z,23.67
2018-02-08T20:04:48.040Z,23.47
2018-02-08T20:07:16.246Z,23.60
2018-02-08T20:09:43.682Z,22.40
2018-02-08T20:12:11.127Z,26.70
2018-02-08T20:14:41.047Z,25.67
2018-02-08T20:17:08.491Z,25.93
2018-02-08T20:19:36.012Z,23.00
2018-02-08T20:22:04.214Z,23.97
2018-02-08T20:24:31.659Z,24.80
2018-02-08T20:26:59.098Z,23.03
2018-02-08T20:29:26.543Z,21.17
2018-02-08T20:31:54.751Z,24.80
2018-02-08T20:34:22.954Z,22.93
2018-02-08T20:36:50.401Z,26.00
2018-02-08T20:39:17.838Z,25.30
2018-02-08T20:41:45.278Z,25.00
2018-02-08T20:44:13.479Z,25.53
2018-02-08T20:46:41.695Z,24.77
2018-02-08T20:49:09.894Z,25.10
2018-02-08T20:51:37.396Z,24.60
2018-02-08T20:54:04.827Z,26.70
2018-02-08T20:56:32.258Z,27.33
2018-02-08T20:58:59.702Z,25.47
2018-02-08T21:01:27.903Z,24.57
2018-02-08T21:03:56.111Z,26.10
2018-02-08T21:06:24.315Z,26.33
2018-02-08T21:08:52.523Z,22.50
2018-02-08T21:11:20.720Z,23.37
2018-02-08T21:13:48.927Z,25.03
2018-02-08T21:16:16.389Z,27.33
2018-02-08T21:18:43.794Z,28.07
2018-02-08T21:21:11.231Z,30.20
2018-02-08T21:23:38.670Z,32.40
2018-02-08T21:26:06.109Z,28.10
2018-02-08T21:28:33.550Z,25.00
2018-02-08T21:31:00.991Z,26.67
2018-02-08T21:33:29.199Z,26.60
2018-02-08T21:35:57.404Z,25.20
2018-02-08T21:38:24.842Z,23.57
2018-02-08T21:40:52.283Z,24.27
2018-02-08T21:43:19.727Z,23.73
2018-02-08T21:45:47.931Z,27.60
2018-02-08T21:48:16.143Z,27.37
2018-02-08T21:50:43.591Z,25.57
2018-02-08T21:53:11.079Z,26.00
2018-02-08T21:55:38.527Z,27.47
2018-02-08T21:58:05.959Z,28.10
2018-02-08T22:00:34.172Z,27.80
2018-02-08T22:03:01.611Z,23.77
2018-02-08T22:05:29.046Z,28.20
2018-02-08T22:07:56.484Z,27.30
2018-02-08T22:10:23.919Z,28.40
2018-02-08T22:12:51.358Z,27.03
2018-02-08T22:15:19.571Z,25.80
2018-02-08T22:17:47.010Z,26.27
2018-02-08T22:20:14.454Z,25.73
2018-02-08T22:22:41.894Z,26.53
2018-02-08T22:25:10.103Z,29.93
2018-02-08T22:27:38.303Z,26.77
2018-02-08T22:30:05.753Z,27.23
2018-02-08T22:32:33.191Z,30.03
2018-02-08T22:35:00.638Z,25.90
2018-02-08T22:37:28.843Z,27.67
2018-02-08T22:39:56.283Z,27.27
2018-02-08T22:42:23.723Z,26.07
2018-02-08T22:44:51.174Z,28.57
2018-02-08T22:47:19.371Z,27.57
2018-02-08T22:49:47.574Z,25.47
2018-02-08T22:52:15.780Z,25.93
2018-02-08T22:54:43.988Z,25.77
2018-02-08T22:57:11.422Z,24.43
2018-02-08T22:59:38.871Z,25.80
2018-02-08T23:02:06.302Z,27.20
2018-02-08T23:04:33.738Z,26.10
2018-02-08T23:07:01.183Z,27.00
2018-02-08T23:09:28.618Z,26.50
2018-02-08T23:11:56.076Z,26.00
2018-02-08T23:14:23.511Z,27.10
2018-02-08T23:16:51.719Z,28.30
2018-02-08T23:19:19.919Z,27.10
2018-02-08T23:21:47.362Z,25.40
2018-02-08T23:24:14.798Z,28.00
2018-02-08T23:26:42.259Z,28.63
2018-02-08T23:29:10.455Z,25.40
2018-02-08T23:31:38.659Z,29.23
2018-02-08T23:34:06.099Z,27.00
2018-02-08T23:36:33.547Z,27.70
2018-02-08T23:39:00.992Z,27.40
2018-02-08T23:41:28.436Z,25.73
2018-02-08T23:43:55.869Z,25.93
2018-02-08T23:46:23.315Z,27.07
2018-02-08T23:48:50.746Z,27.77
2018-02-08T23:51:18.190Z,24.50
2018-02-08T23:53:46.382Z,23.17
2018-02-08T23:56:14.586Z,22.97
2018-02-08T23:58:42.793Z,24.40
